Time;durP1;ratioP1;P1;durP2;ratioP2;P2;SDS_P1;SDS_P2;PMS_P1;PMS_P2;Temp;Humidity;BMP_temperature;BMP_pressure;BME280_temperature;BME280_humidity;BME280_pressure;Samples;Min_cycle;Max_cycle;Signal;HPM_P1;HPM_P2
2022/10/03 00:00:35;;;;;;;4.63;2.70;;;8.90;99.90;;;;;;5089500;28;20031;-70
2022/10/03 00:03:12;;;;;;;7.80;2.55;;;8.90;99.90;;;;;;5089247;28;20036;-69
2022/10/03 00:05:50;;;;;;;6.70;2.78;;;8.90;99.90;;;;;;5089290;28;20036;-70
2022/10/03 00:08:47;;;;;;;5.30;2.80;;;8.90;99.90;;;;;;5079325;28;20521;-70
2022/10/03 00:11:42;;;;;;;6.30;2.70;;;8.90;99.90;;;;;;5057679;28;20043;-70
2022/10/03 00:14:42;;;;;;;5.97;2.75;;;8.90;99.90;;;;;;5046175;28;20064;-70
2022/10/03 00:17:14;;;;;;;6.13;2.88;;;8.90;99.90;;;;;;5062023;28;20059;-70
2022/10/03 00:19:39;;;;;;;6.00;3.10;;;8.90;99.90;;;;;;5073340;28;20111;-71
2022/10/03 00:22:24;;;;;;;7.50;3.10;;;8.90;99.90;;;;;;5067532;28;20107;-70
2022/10/03 00:25:01;;;;;;;8.02;3.40;;;9.00;99.90;;;;;;5072498;28;20503;-70
2022/10/03 00:27:42;;;;;;;8.95;3.22;;;9.00;99.90;;;;;;5087943;28;20515;-69
2022/10/03 00:30:15;;;;;;;6.75;3.10;;;8.90;99.90;;;;;;5074563;28;20025;-70
2022/10/03 00:33:05;;;;;;;6.85;2.63;;;8.90;99.90;;;;;;5078142;28;20024;-70
2022/10/03 00:35:58;;;;;;;8.57;3.17;;;8.90;99.90;;;;;;5088879;28;20020;-70
2022/10/03 00:38:30;;;;;;;7.00;3.00;;;8.90;99.90;;;;;;5078747;28;20711;-70
2022/10/03 00:41:14;;;;;;;10.07;3.47;;;8.90;99.90;;;;;;5070331;28;20048;-70
2022/10/03 00:43:58;;;;;;;6.30;3.35;;;8.90;99.90;;;;;;5068042;28;20028;-69
2022/10/03 00:46:42;;;;;;;8.32;2.63;;;8.90;99.90;;;;;;5068176;28;20098;-69
2022/10/03 00:49:35;;;;;;;5.80;3.00;;;8.80;99.90;;;;;;5076915;28;20172;-70
2022/10/03 00:52:25;;;;;;;5.88;2.63;;;8.80;99.90;;;;;;5088498;28;20035;-70
2022/10/03 00:54:58;;;;;;;;;;;8.70;99.90;;;;;;5089159;28;20077;-70
2022/10/03 00:58:01;;;;;;;7.00;3.20;;;8.80;99.90;;;;;;5088267;28;20416;-69
2022/10/03 01:00:30;;;;;;;7.45;3.33;;;8.70;99.90;;;;;;5065566;28;20151;-70
2022/10/03 01:03:34;;;;;;;8.63;3.58;;;8.70;99.90;;;;;;5065768;28;20130;-70
2022/10/03 01:06:09;;;;;;;8.43;3.53;;;8.70;99.90;;;;;;5067197;28;20039;-68
2022/10/03 01:08:43;;;;;;;10.65;3.55;;;8.80;99.90;;;;;;5067854;28;20388;-69
2022/10/03 01:11:17;;;;;;;8.20;3.35;;;8.80;99.90;;;;;;5047720;28;20112;-70
2022/10/03 01:13:43;;;;;;;6.50;2.63;;;8.70;99.90;;;;;;5071029;28;20043;-69
2022/10/03 01:16:14;;;;;;;8.13;3.03;;;8.70;99.90;;;;;;5082726;28;20038;-69
2022/10/03 01:18:56;;;;;;;6.38;2.80;;;8.70;99.90;;;;;;5079963;28;20036;-69
2022/10/03 01:21:32;;;;;;;5.50;2.53;;;8.70;99.90;;;;;;5072726;28;20399;-69
2022/10/03 01:24:25;;;;;;;6.55;2.92;;;8.60;99.90;;;;;;5053827;28;20115;-69
2022/10/03 01:26:51;;;;;;;6.93;2.70;;;8.50;99.90;;;;;;5065601;28;20032;-69
2022/10/03 01:32:24;;;;;;;5.68;2.70;;;8.40;99.90;;;;;;5073474;28;20035;-69
2022/10/03 01:35:09;;;;;;;6.38;2.47;;;8.40;99.90;;;;;;5064266;28;20036;-69
2022/10/03 01:37:34;;;;;;;9.43;2.63;;;8.40;99.90;;;;;;5067735;28;20033;-70
2022/10/03 01:40:18;;;;;;;6.38;2.83;;;8.40;99.90;;;;;;5068367;28;20028;-69
2022/10/03 01:42:52;;;;;;;6.75;2.83;;;8.30;99.90;;;;;;5079489;28;20066;-69
2022/10/03 01:45:40;;;;;;;6.82;2.55;;;8.20;99.90;;;;;;5062318;28;20039;-70
2022/10/03 01:48:13;;;;;;;7.55;2.80;;;8.20;99.90;;;;;;5051338;28;20419;-70
2022/10/03 01:51:02;;;;;;;6.95;2.65;;;8.30;99.90;;;;;;5071076;28;20025;-69
2022/10/03 01:53:40;;;;;;;7.80;2.75;;;8.20;99.90;;;;;;5058388;28;20031;-70
2022/10/03 01:56:24;;;;;;;9.15;3.05;;;8.20;99.90;;;;;;5066806;28;20037;-70
2022/10/03 01:59:10;;;;;;;5.90;2.58;;;8.10;99.90;;;;;;5066311;28;20040;-69
2022/10/03 02:01:59;;;;;;;6.90;2.95;;;8.20;99.90;;;;;;5067865;28;20051;-69
2022/10/03 02:04:40;;;;;;;10.43;2.88;;;8.20;99.90;;;;;;5060604;28;20508;-69
2022/10/03 02:07:12;;;;;;;8.05;2.83;;;8.20;99.90;;;;;;5047395;28;20124;-69
2022/10/03 02:09:37;;;;;;;6.57;2.58;;;8.20;99.90;;;;;;5062119;28;20051;-70
2022/10/03 02:12:28;;;;;;;7.78;2.50;;;8.10;99.90;;;;;;5066027;28;20033;-70
2022/10/03 02:15:14;;;;;;;6.00;2.42;;;8.10;99.90;;;;;;5069630;28;20057;-69
2022/10/03 02:17:56;;;;;;;5.70;2.47;;;8.00;99.90;;;;;;5064662;28;20063;-69
2022/10/03 02:20:28;;;;;;;6.85;2.40;;;8.00;99.90;;;;;;5048042;28;20529;-69
2022/10/03 02:22:56;;;;;;;5.38;2.28;;;8.00;99.90;;;;;;5076521;28;20032;-69
2022/10/03 02:25:34;;;;;;;7.18;2.20;;;8.00;99.90;;;;;;5066685;28;20032;-70
2022/10/03 02:28:07;;;;;;;6.82;2.50;;;8.00;99.90;;;;;;5066989;28;20075;-69
2022/10/03 02:31:05;;;;;;;4.53;2.33;;;7.90;99.90;;;;;;5051642;28;20036;-69
2022/10/03 02:33:41;;;;;;;6.35;2.38;;;7.80;99.90;;;;;;5035026;28;20106;-70
2022/10/03 02:36:26;;;;;;;5.60;2.25;;;7.70;99.90;;;;;;5070168;28;20048;-69
2022/10/03 02:39:20;;;;;;;8.07;2.15;;;7.60;99.90;;;;;;5072108;28;20062;-69
2022/10/03 02:41:45;;;;;;;7.20;3.00;;;7.60;99.90;;;;;;5062659;28;20478;-70
2022/10/03 02:44:40;;;;;;;7.78;2.95;;;7.50;99.90;;;;;;5069393;28;20090;-68
2022/10/03 02:47:33;;;;;;;7.78;2.40;;;7.50;99.90;;;;;;5070244;28;20034;-69
2022/10/03 02:50:32;;;;;;;4.05;2.08;;;7.50;99.90;;;;;;5064928;28;20094;-68
2022/10/03 02:53:44;;;;;;;3.90;2.20;;;7.50;99.90;;;;;;5072677;28;20028;-69
2022/10/03 02:56:40;;;;;;;5.28;2.15;;;7.60;99.90;;;;;;5045090;28;20281;-70
2022/10/03 02:59:49;;;;;;;6.22;2.17;;;7.60;99.90;;;;;;5073297;28;20029;-69
2022/10/03 03:02:30;;;;;;;6.85;2.72;;;7.60;99.90;;;;;;5077333;28;20523;-69
2022/10/03 03:05:32;;;;;;;5.70;2.10;;;7.60;99.90;;;;;;5038134;28;20538;-69
2022/10/03 03:08:27;;;;;;;5.78;2.28;;;7.50;99.90;;;;;;5069878;28;20053;-69
2022/10/03 03:11:08;;;;;;;4.78;2.08;;;7.50;99.90;;;;;;5073160;28;20542;-69
2022/10/03 03:13:54;;;;;;;4.07;2.20;;;7.50;99.90;;;;;;5079063;28;20502;-68
2022/10/03 03:16:56;;;;;;;6.07;2.05;;;7.50;99.90;;;;;;5076191;28;20029;-69
2022/10/03 03:19:50;;;;;;;4.38;2.38;;;7.50;99.90;;;;;;5070017;28;20454;-70
2022/10/03 03:22:50;;;;;;;4.70;2.33;;;7.50;99.90;;;;;;5069952;28;20140;-69
2022/10/03 03:25:39;;;;;;;6.40;2.60;;;7.50;99.90;;;;;;5073593;28;20055;-69
2022/10/03 03:28:10;;;;;;;4.85;2.33;;;7.50;99.90;;;;;;5045844;28;20049;-70
2022/10/03 03:30:43;;;;;;;7.57;2.38;;;7.50;99.90;;;;;;5049618;28;20525;-70
2022/10/03 03:33:26;;;;;;;6.22;2.80;;;7.50;99.90;;;;;;5062058;28;20102;-70
2022/10/03 03:36:34;;;;;;;4.95;2.55;;;7.50;99.90;;;;;;5084001;28;20039;-70
2022/10/03 03:39:03;;;;;;;6.13;2.67;;;7.50;99.90;;;;;;5061162;28;20044;-69
2022/10/03 03:41:49;;;;;;;6.50;2.60;;;7.50;99.90;;;;;;5069839;28;20029;-70
2022/10/03 03:44:57;;;;;;;8.23;2.92;;;7.60;99.90;;;;;;5069784;28;20082;-70
2022/10/03 03:47:42;;;;;;;7.35;2.83;;;7.60;99.90;;;;;;5023033;28;20068;-70
2022/10/03 03:50:26;;;;;;;6.25;3.10;;;7.60;99.90;;;;;;5014420;28;20365;-69
2022/10/03 03:53:36;;;;;;;9.48;2.85;;;7.60;99.90;;;;;;5006903;28;20053;-70
2022/10/03 03:56:15;;;;;;;8.20;2.92;;;7.50;99.90;;;;;;4951254;28;20058;-69
2022/10/03 03:59:37;;;;;;;8.73;2.90;;;7.50;99.90;;;;;;4964484;28;20046;-70
2022/10/03 04:02:15;;;;;;;5.15;2.30;;;7.30;99.90;;;;;;4932840;29;20039;-70
2022/10/03 04:04:46;;;;;;;9.32;2.60;;;7.30;99.90;;;;;;4937033;29;21105;-70
2022/10/03 04:07:26;;;;;;;8.30;2.65;;;7.30;99.90;;;;;;4937993;29;20143;-69
2022/10/03 04:10:15;;;;;;;5.55;2.92;;;7.40;99.90;;;;;;4944840;29;20046;-69
2022/10/03 04:13:11;;;;;;;7.45;2.50;;;7.50;99.90;;;;;;4928101;29;20051;-69
2022/10/03 04:15:54;;;;;;;8.52;2.60;;;7.40;99.90;;;;;;4927983;29;20042;-70
2022/10/03 04:18:56;;;;;;;9.38;2.97;;;7.40;99.90;;;;;;4927668;29;20043;-70
2022/10/03 04:21:22;;;;;;;7.57;3.30;;;7.40;99.90;;;;;;4927860;29;20039;-70
2022/10/03 04:24:26;;;;;;;7.63;2.88;;;7.60;99.90;;;;;;4944044;28;20046;-69
2022/10/03 04:26:58;;;;;;;5.90;2.60;;;7.60;99.90;;;;;;4948211;28;20038;-70
2022/10/03 04:29:50;;;;;;;9.80;3.10;;;7.60;99.90;;;;;;4947669;29;20039;-69
2022/10/03 04:32:40;;;;;;;5.97;3.10;;;7.60;99.90;;;;;;5017252;28;20051;-70
2022/10/03 04:35:48;;;;;;;7.30;2.63;;;7.60;99.90;;;;;;5068261;28;20032;-70
2022/10/03 04:39:07;;;;;;;6.53;2.90;;;7.60;99.90;;;;;;5078902;28;20032;-70
2022/10/03 04:42:25;;;;;;;6.13;2.70;;;7.60;99.90;;;;;;4993932;28;20069;-70
2022/10/03 04:45:12;;;;;;;7.78;2.90;;;7.50;99.90;;;;;;4947270;28;20135;-70
2022/10/03 04:47:51;;;;;;;6.07;3.00;;;7.40;99.90;;;;;;4955289;28;20043;-70
2022/10/03 04:50:35;;;;;;;6.57;3.35;;;7.40;99.90;;;;;;4966546;28;20050;-71
2022/10/03 04:53:15;;;;;;;5.95;2.65;;;7.40;99.90;;;;;;4967023;28;20046;-69
2022/10/03 04:55:45;;;;;;;;;;;7.40;99.90;;;;;;4928544;29;20050;-70
2022/10/03 04:58:38;;;;;;;7.10;2.85;;;7.40;99.90;;;;;;4947210;28;20409;-69
2022/10/03 05:01:42;;;;;;;5.55;2.90;;;7.40;99.90;;;;;;4947158;29;20046;-70
2022/10/03 05:04:35;;;;;;;7.22;2.90;;;7.40;99.90;;;;;;4947111;29;20027;-69
2022/10/03 05:07:07;;;;;;;6.95;3.35;;;7.40;99.90;;;;;;4947354;29;20039;-70
2022/10/03 05:10:02;;;;;;;8.38;4.03;;;7.50;99.90;;;;;;4950585;28;20083;-69
2022/10/03 05:12:46;;;;;;;6.18;2.90;;;7.50;99.90;;;;;;4946729;28;20492;-69
2022/10/03 05:15:17;;;;;;;10.27;3.28;;;7.50;99.90;;;;;;4963323;28;20086;-70
2022/10/03 05:17:51;;;;;;;4.80;3.03;;;7.50;99.90;;;;;;4989831;28;20046;-70
2022/10/03 05:20:41;;;;;;;6.53;3.90;;;7.60;99.90;;;;;;5069181;28;20545;-69
2022/10/03 05:23:33;;;;;;;10.13;3.83;;;7.70;99.90;;;;;;5075221;28;20048;-70
2022/10/03 05:26:47;;;;;;;6.85;3.53;;;7.70;99.90;;;;;;5079489;28;20127;-69
2022/10/03 05:30:00;;;;;;;8.50;4.00;;;7.80;99.90;;;;;;5063639;28;20052;-70
2022/10/03 05:32:43;;;;;;;9.77;4.55;;;7.80;99.90;;;;;;5062046;28;20040;-69
2022/10/03 05:35:55;;;;;;;10.40;4.18;;;7.80;99.90;;;;;;5049146;28;20097;-69
2022/10/03 05:38:43;;;;;;;7.93;4.25;;;7.80;99.90;;;;;;5065028;28;20047;-69
2022/10/03 05:42:13;;;;;;;9.48;4.13;;;7.80;99.90;;;;;;5069797;28;20037;-70
2022/10/03 05:44:47;;;;;;;10.90;3.80;;;7.80;99.90;;;;;;4973965;28;20490;-70
2022/10/03 05:50:41;;;;;;;7.03;3.60;;;7.70;99.90;;;;;;4996100;28;20451;-70
2022/10/03 05:53:27;;;;;;;6.97;3.08;;;7.70;99.90;;;;;;4990766;28;20113;-70
2022/10/03 05:56:05;;;;;;;6.15;2.88;;;7.80;99.90;;;;;;4987792;28;20512;-70
2022/10/03 05:58:36;;;;;;;8.27;3.60;;;7.80;99.90;;;;;;4992186;28;20593;-69
2022/10/03 06:01:20;;;;;;;6.32;3.10;;;7.80;99.90;;;;;;4993775;28;20116;-69
2022/10/03 06:04:16;;;;;;;7.75;3.72;;;7.80;99.90;;;;;;4995007;28;20041;-70
2022/10/03 06:06:59;;;;;;;7.22;3.33;;;7.80;99.90;;;;;;4987471;28;20118;-69
2022/10/03 06:09:30;;;;;;;8.18;3.90;;;7.80;99.90;;;;;;4988407;28;20050;-70
2022/10/03 06:12:02;;;;;;;10.05;3.78;;;7.80;99.90;;;;;;4999500;28;20508;-70
2022/10/03 06:14:34;;;;;;;9.73;4.10;;;7.80;99.90;;;;;;5011053;28;20127;-70
2022/10/03 06:17:12;;;;;;;8.80;3.95;;;7.80;99.90;;;;;;5070875;28;20107;-70
2022/10/03 06:20:45;;;;;;;8.88;3.78;;;7.80;99.90;;;;;;5067311;28;20671;-69
2022/10/03 06:23:49;;;;;;;6.97;3.72;;;7.90;99.90;;;;;;5050772;28;20041;-70
2022/10/03 06:27:02;;;;;;;7.47;4.60;;;7.90;99.90;;;;;;5057011;28;20044;-70
2022/10/03 06:29:50;;;;;;;7.80;3.97;;;8.00;99.90;;;;;;5050837;28;20052;-70
2022/10/03 06:32:32;;;;;;;9.98;3.80;;;8.00;99.90;;;;;;5068679;28;20032;-70
2022/10/03 06:35:06;;;;;;;6.65;3.53;;;8.10;99.90;;;;;;5066274;28;20032;-70
2022/10/03 06:38:10;;;;;;;9.30;4.10;;;8.10;99.90;;;;;;5070354;28;20052;-70
2022/10/03 06:40:51;;;;;;;8.85;4.00;;;8.10;99.90;;;;;;5068156;28;20036;-70
2022/10/03 06:43:47;;;;;;;6.68;3.55;;;8.20;99.90;;;;;;5064592;28;20883;-70
2022/10/03 06:46:30;;;;;;;8.25;4.00;;;8.20;99.90;;;;;;5064185;28;20044;-70
2022/10/03 06:49:17;;;;;;;7.03;3.70;;;8.20;99.90;;;;;;5061381;28;20040;-70
2022/10/03 06:52:11;;;;;;;7.30;4.03;;;8.30;99.90;;;;;;5060739;28;20029;-70
2022/10/03 06:55:06;;;;;;;6.88;3.90;;;8.40;99.90;;;;;;5072759;28;20050;-69
2022/10/03 06:58:00;;;;;;;16.15;3.95;;;8.40;99.90;;;;;;5066183;28;20037;-70
2022/10/03 07:01:02;;;;;;;10.15;3.97;;;8.40;99.90;;;;;;5054545;28;20491;-70
2022/10/03 07:03:53;;;;;;;8.95;3.85;;;8.50;99.90;;;;;;5069099;28;20421;-70
2022/10/03 07:06:32;;;;;;;8.90;4.05;;;8.50;99.90;;;;;;5064464;28;20102;-69
2022/10/03 07:09:25;;;;;;;8.15;3.55;;;8.50;99.90;;;;;;5060700;28;20056;-70
2022/10/03 07:12:25;;;;;;;7.85;3.72;;;8.50;99.90;;;;;;5061810;28;20040;-69
2022/10/03 07:14:56;;;;;;;10.90;3.67;;;8.60;99.90;;;;;;5073291;28;20052;-69
2022/10/03 07:17:27;;;;;;;9.07;3.80;;;8.60;99.90;;;;;;5075250;28;20130;-70
2022/10/03 07:19:59;;;;;;;10.10;3.63;;;8.60;99.90;;;;;;5047868;28;20032;-70
2022/10/03 07:22:47;;;;;;;9.48;3.88;;;8.70;99.90;;;;;;5060102;28;20036;-70
2022/10/03 07:25:36;;;;;;;8.25;3.50;;;8.70;99.90;;;;;;5072441;28;20383;-69
2022/10/03 07:28:11;;;;;;;7.40;3.90;;;8.80;99.90;;;;;;5068758;28;20418;-68
2022/10/03 07:31:05;;;;;;;7.70;4.03;;;8.80;99.90;;;;;;5069332;28;20059;-71
2022/10/03 07:33:56;;;;;;;7.13;3.42;;;8.90;99.90;;;;;;5069430;28;20028;-71
2022/10/03 07:39:15;;;;;;;11.10;3.60;;;8.90;99.90;;;;;;5069567;28;20043;-71
2022/10/03 07:42:03;;;;;;;7.47;3.45;;;8.90;99.90;;;;;;5069306;28;20021;-71
2022/10/03 07:44:49;;;;;;;8.40;3.42;;;9.00;99.90;;;;;;5068464;28;20043;-72
2022/10/03 07:47:39;;;;;;;7.13;3.53;;;9.00;99.90;;;;;;5067542;28;20487;-71
2022/10/03 07:50:26;;;;;;;7.22;3.65;;;9.10;99.90;;;;;;5064101;28;20039;-71
2022/10/03 07:53:43;;;;;;;9.15;3.60;;;9.20;99.90;;;;;;5053339;28;20376;-70
2022/10/03 07:56:31;;;;;;;7.43;4.00;;;9.30;99.90;;;;;;5014581;28;20052;-71
2022/10/03 07:59:14;;;;;;;8.13;3.72;;;9.30;99.90;;;;;;5056846;28;20041;-71
2022/10/03 08:01:55;;;;;;;6.72;3.75;;;9.40;99.90;;;;;;5056701;28;20078;-71
2022/10/03 08:04:48;;;;;;;7.82;3.83;;;9.40;99.90;;;;;;5057783;28;20035;-71
2022/10/03 08:07:44;;;;;;;6.15;3.17;;;9.50;99.90;;;;;;5070819;28;20052;-70
2022/10/03 08:10:51;;;;;;;8.82;3.42;;;9.50;99.90;;;;;;5063229;28;20032;-71
2022/10/03 08:13:25;;;;;;;7.30;3.33;;;9.50;99.90;;;;;;5001873;28;20042;-71
2022/10/03 08:15:58;;;;;;;11.15;4.07;;;9.50;99.90;;;;;;5004290;28;20088;-71
2022/10/03 08:18:27;;;;;;;6.63;3.63;;;9.50;99.90;;;;;;4988539;28;20052;-71
2022/10/03 08:20:58;;;;;;;9.18;3.78;;;9.50;99.90;;;;;;4998502;28;20064;-71
2022/10/03 08:24:04;;;;;;;9.48;4.10;;;9.60;99.90;;;;;;4990887;28;20533;-71
2022/10/03 08:26:47;;;;;;;10.80;4.63;;;9.70;99.90;;;;;;5003443;28;20029;-72
2022/10/03 08:29:30;;;;;;;10.95;4.68;;;9.70;99.90;;;;;;5004267;28;20050;-71
2022/10/03 08:32:16;;;;;;;11.48;4.13;;;9.70;99.90;;;;;;5005601;28;20030;-71
2022/10/03 08:35:00;;;;;;;8.48;3.92;;;9.80;99.90;;;;;;4997899;28;20073;-71
2022/10/03 08:37:44;;;;;;;9.95;4.25;;;9.90;99.90;;;;;;5001331;28;20046;-72
2022/10/03 08:40:59;;;;;;;12.10;4.10;;;9.90;99.90;;;;;;5005707;28;20243;-72
2022/10/03 08:43:49;;;;;;;8.32;4.78;;;10.00;99.90;;;;;;5004070;28;20084;-71
2022/10/03 08:46:26;;;;;;;9.85;5.20;;;10.10;99.90;;;;;;5000828;28;20048;-71
2022/10/03 08:49:29;;;;;;;14.02;6.90;;;10.20;99.90;;;;;;4999794;28;20045;-72
2022/10/03 08:52:06;;;;;;;9.48;5.07;;;10.20;99.90;;;;;;5061705;28;20059;-69
2022/10/03 08:54:53;;;;;;;10.98;5.22;;;10.30;99.90;;;;;;5048775;28;20021;-71
2022/10/03 08:57:56;;;;;;;14.20;6.05;;;10.40;99.90;;;;;;5048883;28;20040;-71
2022/10/03 09:00:35;;;;;;;10.32;5.22;;;10.50;99.90;;;;;;5032795;28;20102;-72
2022/10/03 09:03:00;;;;;;;11.35;5.53;;;10.60;99.90;;;;;;5068083;28;20064;-72
2022/10/03 09:05:38;;;;;;;11.85;5.15;;;10.70;99.90;;;;;;5067882;28;20074;-72
2022/10/03 09:08:32;;;;;;;11.93;5.00;;;10.80;99.90;;;;;;5049243;28;20080;-69
2022/10/03 09:11:13;;;;;;;12.13;4.50;;;10.90;99.90;;;;;;5067746;28;20033;-69
2022/10/03 09:14:12;;;;;;;10.93;4.00;;;11.00;99.90;;;;;;5067197;28;20037;-69
2022/10/03 09:17:22;;;;;;;14.95;3.92;;;11.20;99.90;;;;;;5029880;28;20037;-70
2022/10/03 09:19:59;;;;;;;;;;;11.40;99.90;;;;;;4973421;28;20034;-71
2022/10/03 09:22:46;;;;;;;12.55;3.00;;;11.60;99.90;;;;;;4988625;28;19916;-69
2022/10/03 09:25:48;;;;;;;8.40;2.97;;;11.70;99.90;;;;;;5004681;28;20038;-69
2022/10/03 09:28:42;;;;;;;9.35;2.55;;;11.90;99.90;;;;;;5005042;28;20052;-70
2022/10/03 09:31:36;;;;;;;8.05;2.13;;;12.00;99.90;;;;;;5003011;28;20045;-69
2022/10/03 09:34:11;;;;;;;10.13;2.50;;;12.20;99.90;;;;;;4988662;28;20030;-69
2022/10/03 09:36:51;;;;;;;11.32;2.70;;;12.30;99.90;;;;;;4988147;28;20030;-70
2022/10/03 09:39:44;;;;;;;10.00;2.40;;;12.30;99.90;;;;;;5004647;28;20081;-70
2022/10/03 09:42:37;;;;;;;8.98;2.60;;;12.40;99.90;;;;;;5008513;28;20813;-70
2022/10/03 09:45:27;;;;;;;8.90;2.85;;;12.50;99.90;;;;;;5009147;28;20088;-70
2022/10/03 09:47:59;;;;;;;10.63;2.72;;;12.60;99.90;;;;;;4988713;28;20046;-71
2022/10/03 09:50:35;;;;;;;11.80;3.70;;;12.60;99.90;;;;;;5010539;28;20400;-71
2022/10/03 09:53:23;;;;;;;11.13;3.15;;;12.60;99.90;;;;;;5051416;28;20025;-70
2022/10/03 09:56:26;;;;;;;11.98;4.13;;;12.60;99.90;;;;;;5061006;28;20056;-70
2022/10/03 09:59:13;;;;;;;10.93;4.07;;;12.70;99.90;;;;;;5053299;28;20040;-70
2022/10/03 10:02:03;;;;;;;11.18;3.47;;;12.80;99.90;;;;;;5071118;28;20024;-71
2022/10/03 10:05:06;;;;;;;10.18;3.00;;;12.90;99.90;;;;;;5054281;28;20032;-70
2022/10/03 10:07:50;;;;;;;13.13;3.90;;;13.00;99.90;;;;;;5065011;28;20057;-70
2022/10/03 10:10:47;;;;;;;11.50;3.33;;;13.10;99.90;;;;;;5063490;28;20518;-70
2022/10/03 10:13:50;;;;;;;10.55;3.38;;;13.20;99.90;;;;;;5050774;28;20376;-68
2022/10/03 10:16:47;;;;;;;8.38;3.05;;;13.30;99.90;;;;;;5070827;28;20058;-69
2022/10/03 10:19:34;;;;;;;7.95;3.25;;;13.40;99.90;;;;;;5049241;28;20040;-69
2022/10/03 10:22:26;;;;;;;11.35;2.88;;;13.50;99.90;;;;;;5063610;28;20040;-70
2022/10/03 10:25:13;;;;;;;9.85;3.42;;;13.60;99.90;;;;;;5051060;28;20033;-70
2022/10/03 10:27:54;;;;;;;10.68;3.20;;;13.90;99.90;;;;;;5052882;28;20111;-70
2022/10/03 10:30:26;;;;;;;13.65;3.45;;;14.30;99.90;;;;;;5065650;28;20052;-70
2022/10/03 10:33:04;;;;;;;14.65;3.45;;;14.70;99.90;;;;;;5069530;28;20032;-70
2022/10/03 10:35:58;;;;;;;9.67;3.10;;;15.10;99.90;;;;;;5070240;28;20051;-70
2022/10/03 10:38:36;;;;;;;7.68;2.65;;;15.70;99.90;;;;;;5024372;28;20037;-70
2022/10/03 10:41:39;;;;;;;10.45;2.70;;;15.80;99.90;;;;;;5064092;28;20107;-70
2022/10/03 10:44:17;;;;;;;8.73;2.70;;;15.90;99.90;;;;;;5064058;28;20101;-70
2022/10/03 10:47:00;;;;;;;8.60;2.50;;;16.20;99.90;;;;;;5032916;28;20116;-70
2022/10/03 10:49:45;;;;;;;6.35;2.35;;;16.90;99.90;;;;;;5051477;28;20041;-70
2022/10/03 10:52:17;;;;;;;9.27;2.65;;;17.10;99.90;;;;;;5053298;28;20032;-70
2022/10/03 10:55:20;;;;;;;11.10;2.65;;;17.20;99.90;;;;;;5069968;28;20687;-70
2022/10/03 10:57:50;;;;;;;7.60;3.08;;;17.30;99.90;;;;;;5053606;28;20047;-70
2022/10/03 11:01:07;;;;;;;10.32;3.53;;;17.30;99.90;;;;;;5049996;28;20041;-70
2022/10/03 11:03:51;;;;;;;13.55;4.43;;;17.40;99.90;;;;;;5014502;28;20052;-70
2022/10/03 11:06:26;;;;;;;17.05;5.53;;;17.50;99.90;;;;;;4992498;28;20050;-71
2022/10/03 11:09:30;;;;;;;17.15;5.95;;;17.50;99.90;;;;;;5021728;28;20060;-71
2022/10/03 11:12:01;;;;;;;11.15;3.30;;;17.70;99.90;;;;;;5007508;28;20108;-71
2022/10/03 11:14:45;;;;;;;10.60;2.55;;;17.80;99.90;;;;;;5022568;28;20120;-70
2022/10/03 11:17:46;;;;;;;8.13;2.83;;;18.00;99.90;;;;;;5027469;28;20296;-71
2022/10/03 11:20:25;;;;;;;8.52;2.47;;;18.30;98.80;;;;;;4981587;28;20041;-71
2022/10/03 11:23:38;;;;;;;8.95;2.78;;;18.60;97.00;;;;;;4987899;28;20054;-71
2022/10/03 11:26:30;;;;;;;8.80;1.60;;;19.00;93.60;;;;;;4984792;28;20041;-71
2022/10/03 11:29:19;;;;;;;8.20;1.98;;;19.10;93.90;;;;;;4965411;28;20047;-72
2022/10/03 11:32:20;;;;;;;9.15;1.90;;;18.90;94.10;;;;;;4987411;28;20724;-71
2022/10/03 11:35:09;;;;;;;8.30;1.85;;;18.70;92.60;;;;;;4987466;28;20206;-72
2022/10/03 11:37:43;;;;;;;8.80;1.40;;;18.60;93.00;;;;;;4987453;28;20109;-72
2022/10/03 11:40:41;;;;;;;7.72;1.52;;;18.60;91.40;;;;;;5002858;28;20053;-71
2022/10/03 11:43:26;;;;;;;11.35;2.05;;;18.40;91.40;;;;;;4990535;28;20058;-70
2022/10/03 11:46:10;;;;;;;6.32;1.40;;;18.40;92.50;;;;;;5001390;28;20073;-71
2022/10/03 11:48:45;;;;;;;7.22;1.42;;;18.50;90.90;;;;;;4995432;28;20607;-72
2022/10/03 11:51:17;;;;;;;13.02;1.80;;;18.60;92.30;;;;;;4999373;28;20602;-71
2022/10/03 11:53:50;;;;;;;8.10;1.52;;;18.70;92.80;;;;;;5018994;28;20056;-72
2022/10/03 11:56:44;;;;;;;8.10;1.52;;;18.70;92.40;;;;;;5064908;28;20538;-73
2022/10/03 11:59:31;;;;;;;7.20;1.63;;;18.80;93.00;;;;;;5072274;28;20490;-71
2022/10/03 12:02:22;;;;;;;7.15;1.80;;;18.90;91.20;;;;;;5060853;28;20020;-71
2022/10/03 12:04:50;;;;;;;5.65;1.20;;;18.90;90.70;;;;;;5049842;28;21687;-72
2022/10/03 12:10:46;;;;;;;8.35;1.40;;;18.70;89.40;;;;;;5001574;28;20500;-71
2022/10/03 12:13:29;;;;;;;6.20;1.58;;;18.80;87.80;;;;;;4996465;28;20049;-72
2022/10/03 12:15:57;;;;;;;9.13;1.95;;;19.00;86.10;;;;;;4999158;28;20046;-72
2022/10/03 12:18:41;;;;;;;10.48;2.15;;;20.30;80.70;;;;;;4990666;28;20050;-72
2022/10/03 12:21:25;;;;;;;6.22;1.30;;;20.30;79.60;;;;;;4998302;28;20088;-70
2022/10/03 12:23:59;;;;;;;7.40;1.67;;;20.20;78.50;;;;;;4999582;28;20153;-71
2022/10/03 12:26:41;;;;;;;9.10;1.42;;;19.90;78.10;;;;;;4978861;28;20057;-72
2022/10/03 12:29:11;;;;;;;9.18;1.80;;;19.60;77.50;;;;;;4989274;28;20085;-71
2022/10/03 12:31:54;;;;;;;5.38;1.30;;;19.40;80.50;;;;;;4997725;28;20057;-72
2022/10/03 12:35:01;;;;;;;9.52;1.70;;;19.40;78.30;;;;;;4993449;28;20136;-70
2022/10/03 12:37:33;;;;;;;7.90;1.48;;;19.10;83.60;;;;;;4978787;28;20136;-71
2022/10/03 12:40:09;;;;;;;7.85;1.58;;;18.90;87.50;;;;;;4982578;28;20049;-71
2022/10/03 12:42:59;;;;;;;7.43;1.70;;;18.90;86.70;;;;;;4980602;28;20030;-71
2022/10/03 12:45:42;;;;;;;6.38;1.30;;;18.60;86.10;;;;;;4991774;28;20037;-71
2022/10/03 12:48:07;;;;;;;7.55;1.60;;;18.50;88.10;;;;;;5046504;28;20052;-70
2022/10/03 12:50:53;;;;;;;7.85;1.63;;;18.50;86.90;;;;;;5050151;28;20444;-72
2022/10/03 12:53:28;;;;;;;9.43;1.48;;;18.50;85.60;;;;;;5059159;28;20024;-72
2022/10/03 12:56:00;;;;;;;9.05;1.25;;;18.50;86.30;;;;;;5068738;28;20028;-72
2022/10/03 12:58:41;;;;;;;8.23;1.75;;;18.50;85.20;;;;;;5057555;28;20064;-72
2022/10/03 13:01:06;;;;;;;7.80;1.40;;;18.40;85.80;;;;;;5061094;28;20460;-71
2022/10/03 13:03:40;;;;;;;8.68;1.42;;;18.40;88.20;;;;;;5048578;28;20116;-71
2022/10/03 13:06:32;;;;;;;7.05;1.70;;;18.40;89.30;;;;;;5057513;28;20471;-72
2022/10/03 13:09:12;;;;;;;8.95;1.70;;;18.40;84.90;;;;;;5052023;28;20721;-71
2022/10/03 13:11:44;;;;;;;8.02;1.75;;;18.50;85.80;;;;;;5068022;28;20039;-71
2022/10/03 13:14:40;;;;;;;6.10;1.30;;;18.50;87.20;;;;;;5042232;28;20683;-71
2022/10/03 13:17:16;;;;;;;5.97;1.33;;;18.50;86.80;;;;;;5051185;28;20035;-71
2022/10/03 13:20:00;;;;;;;7.22;1.40;;;18.40;82.50;;;;;;5052034;28;20146;-71
2022/10/03 13:23:06;;;;;;;9.25;1.92;;;18.40;85.20;;;;;;5064114;28;20032;-70
2022/10/03 13:25:45;;;;;;;8.43;1.70;;;18.40;86.00;;;;;;5043875;28;20583;-71
2022/10/03 13:28:48;;;;;;;9.48;1.42;;;18.40;89.30;;;;;;5048272;28;20403;-71
2022/10/03 13:31:19;;;;;;;10.10;1.65;;;18.40;90.40;;;;;;5050968;28;20051;-71
2022/10/03 13:33:53;;;;;;;9.73;1.67;;;18.50;90.80;;;;;;5050494;28;20111;-72
2022/10/03 13:36:45;;;;;;;6.63;1.25;;;18.40;85.60;;;;;;5047103;28;20037;-71
2022/10/03 13:39:52;;;;;;;9.55;1.65;;;18.40;86.30;;;;;;5057121;28;20517;-72
2022/10/03 13:42:45;;;;;;;8.48;2.08;;;18.30;87.40;;;;;;5006003;28;20050;-71
2022/10/03 13:45:16;;;;;;;6.30;1.27;;;18.20;87.30;;;;;;5000596;28;20050;-71
2022/10/03 13:47:57;;;;;;;10.05;1.80;;;18.20;87.10;;;;;;4989171;28;20042;-71
2022/10/03 13:50:39;;;;;;;6.55;1.40;;;18.20;86.80;;;;;;5005608;28;20046;-71
2022/10/03 13:53:42;;;;;;;6.88;1.25;;;18.10;87.70;;;;;;5005518;28;20420;-71
2022/10/03 13:56:29;;;;;;;8.95;1.60;;;18.10;89.10;;;;;;5005271;28;20108;-71
2022/10/03 13:59:36;;;;;;;8.05;1.30;;;18.10;91.00;;;;;;5005398;28;20049;-71
2022/10/03 14:02:33;;;;;;;6.43;1.15;;;18.10;90.40;;;;;;5000886;28;20610;-71
2022/10/03 14:05:20;;;;;;;6.10;1.10;;;18.00;90.40;;;;;;4996730;28;20045;-70
2022/10/03 14:08:11;;;;;;;7.35;1.48;;;18.00;90.10;;;;;;5003214;28;20562;-71
2022/10/03 14:10:58;;;;;;;6.72;1.30;;;17.90;89.90;;;;;;5003153;28;20054;-71
2022/10/03 14:14:00;;;;;;;10.95;3.88;;;17.90;90.40;;;;;;5003725;28;20121;-72
2022/10/03 14:16:33;;;;;;;14.73;3.97;;;17.90;90.70;;;;;;5028900;28;20487;-70
2022/10/03 14:19:13;;;;;;;15.25;3.88;;;17.80;87.20;;;;;;5048311;28;20086;-71
2022/10/03 14:22:10;;;;;;;10.23;2.55;;;17.80;88.60;;;;;;5048994;28;20110;-70
2022/10/03 14:25:12;;;;;;;6.60;1.67;;;17.80;89.10;;;;;;5050648;28;20434;-70
2022/10/03 14:27:51;;;;;;;9.45;1.80;;;17.90;89.00;;;;;;4995738;28;20046;-70
2022/10/03 14:30:43;;;;;;;9.48;1.67;;;18.20;90.20;;;;;;5004112;28;20046;-70
2022/10/03 14:33:16;;;;;;;8.23;1.77;;;18.40;90.10;;;;;;5004011;28;20062;-70
2022/10/03 14:36:05;;;;;;;7.25;1.25;;;18.50;88.30;;;;;;5002607;28;20128;-71
2022/10/03 14:39:10;;;;;;;8.85;1.50;;;18.50;87.50;;;;;;4999130;28;20069;-71
2022/10/03 14:41:40;;;;;;;6.53;1.73;;;18.60;90.10;;;;;;4984616;28;20045;-71